sensor_id;sensor_type;location;lat;lon;timestamp;P1;durP1;ratioP1;P2;durP2;ratioP2
23608;SDS011;11982;50.810;4.442;2022-11-12T00:00:23;16.45;;;10.48;;
23608;SDS011;11982;50.810;4.442;2022-11-12T00:02:49;18.45;;;10.57;;
23608;SDS011;11982;50.810;4.442;2022-11-12T00:05:14;17.23;;;10.82;;
23608;SDS011;11982;50.810;4.442;2022-11-12T00:07:40;16.73;;;10.95;;
23608;SDS011;11982;50.810;4.442;2022-11-12T00:10:06;20.95;;;11.18;;
23608;SDS011;11982;50.810;4.442;2022-11-12T00:12:32;18.92;;;11.20;;
23608;SDS011;11982;50.810;4.442;2022-11-12T00:14:57;23.00;;;11.23;;
23608;SDS011;11982;50.810;4.442;2022-11-12T00:17:23;21.90;;;11.18;;
23608;SDS011;11982;50.810;4.442;2022-11-12T00:19:48;19.15;;;10.90;;
23608;SDS011;11982;50.810;4.442;2022-11-12T00:22:14;18.75;;;11.43;;
23608;SDS011;11982;50.810;4.442;2022-11-12T00:24:40;22.60;;;11.75;;
23608;SDS011;11982;50.810;4.442;2022-11-12T00:27:06;20.95;;;12.07;;
23608;SDS011;11982;50.810;4.442;2022-11-12T00:29:31;19.63;;;11.73;;
23608;SDS011;11982;50.810;4.442;2022-11-12T00:31:57;20.23;;;11.90;;
23608;SDS011;11982;50.810;4.442;2022-11-12T00:34:23;23.35;;;13.02;;
23608;SDS011;11982;50.810;4.442;2022-11-12T00:36:48;24.75;;;13.05;;
23608;SDS011;11982;50.810;4.442;2022-11-12T00:39:14;18.85;;;11.70;;
23608;SDS011;11982;50.810;4.442;2022-11-12T00:41:39;19.17;;;12.40;;
23608;SDS011;11982;50.810;4.442;2022-11-12T00:44:05;18.70;;;13.00;;
23608;SDS011;11982;50.810;4.442;2022-11-12T00:46:31;19.48;;;12.88;;
23608;SDS011;11982;50.810;4.442;2022-11-12T00:48:56;20.95;;;13.00;;
23608;SDS011;11982;50.810;4.442;2022-11-12T00:51:22;19.52;;;12.85;;
23608;SDS011;11982;50.810;4.442;2022-11-12T00:53:48;23.73;;;13.23;;
23608;SDS011;11982;50.810;4.442;2022-11-12T00:56:14;23.83;;;15.27;;
23608;SDS011;11982;50.810;4.442;2022-11-12T00:58:40;29.17;;;16.08;;
23608;SDS011;11982;50.810;4.442;2022-11-12T01:01:06;24.90;;;13.65;;
23608;SDS011;11982;50.810;4.442;2022-11-12T01:03:35;23.55;;;14.25;;
23608;SDS011;11982;50.810;4.442;2022-11-12T01:06:02;22.20;;;12.90;;
23608;SDS011;11982;50.810;4.442;2022-11-12T01:08:32;23.50;;;13.15;;
23608;SDS011;11982;50.810;4.442;2022-11-12T01:11:05;18.63;;;12.43;;
23608;SDS011;11982;50.810;4.442;2022-11-12T01:13:36;23.00;;;14.05;;
23608;SDS011;11982;50.810;4.442;2022-11-12T01:16:04;22.17;;;14.18;;
23608;SDS011;11982;50.810;4.442;2022-11-12T01:18:30;22.08;;;13.50;;
23608;SDS011;11982;50.810;4.442;2022-11-12T01:20:58;26.30;;;15.82;;
23608;SDS011;11982;50.810;4.442;2022-11-12T01:23:26;21.50;;;14.40;;
23608;SDS011;11982;50.810;4.442;2022-11-12T01:25:52;27.52;;;15.68;;
23608;SDS011;11982;50.810;4.442;2022-11-12T01:28:17;25.90;;;15.70;;
23608;SDS011;11982;50.810;4.442;2022-11-12T01:30:43;25.17;;;15.15;;
23608;SDS011;11982;50.810;4.442;2022-11-12T01:33:09;26.60;;;15.73;;
23608;SDS011;11982;50.810;4.442;2022-11-12T01:35:34;27.23;;;15.27;;
23608;SDS011;11982;50.810;4.442;2022-11-12T01:38:00;22.70;;;14.63;;
23608;SDS011;11982;50.810;4.442;2022-11-12T01:40:25;28.95;;;15.02;;
23608;SDS011;11982;50.810;4.442;2022-11-12T01:42:51;24.77;;;15.50;;
23608;SDS011;11982;50.810;4.442;2022-11-12T01:45:18;23.08;;;14.85;;
23608;SDS011;11982;50.810;4.442;2022-11-12T01:47:45;27.02;;;15.63;;
23608;SDS011;11982;50.810;4.442;2022-11-12T01:50:36;26.13;;;15.65;;
23608;SDS011;11982;50.810;4.442;2022-11-12T01:53:04;28.13;;;16.42;;
23608;SDS011;11982;50.810;4.442;2022-11-12T01:55:34;29.25;;;15.05;;
23608;SDS011;11982;50.810;4.442;2022-11-12T01:58:06;28.27;;;16.10;;
23608;SDS011;11982;50.810;4.442;2022-11-12T02:00:35;27.10;;;16.25;;
23608;SDS011;11982;50.810;4.442;2022-11-12T02:03:01;27.75;;;15.00;;
23608;SDS011;11982;50.810;4.442;2022-11-12T02:05:29;25.33;;;15.52;;
23608;SDS011;11982;50.810;4.442;2022-11-12T02:07:57;24.48;;;13.65;;
23608;SDS011;11982;50.810;4.442;2022-11-12T02:10:24;24.77;;;13.50;;
23608;SDS011;11982;50.810;4.442;2022-11-12T02:12:50;29.02;;;14.95;;
23608;SDS011;11982;50.810;4.442;2022-11-12T02:15:36;27.20;;;15.15;;
23608;SDS011;11982;50.810;4.442;2022-11-12T02:18:02;29.17;;;16.13;;
23608;SDS011;11982;50.810;4.442;2022-11-12T02:20:31;31.15;;;16.67;;
23608;SDS011;11982;50.810;4.442;2022-11-12T02:23:01;31.65;;;16.85;;
23608;SDS011;11982;50.810;4.442;2022-11-12T02:25:28;28.63;;;16.67;;
23608;SDS011;11982;50.810;4.442;2022-11-12T02:27:55;34.78;;;17.15;;
23608;SDS011;11982;50.810;4.442;2022-11-12T02:32:59;27.92;;;15.95;;
23608;SDS011;11982;50.810;4.442;2022-11-12T02:35:25;23.67;;;14.13;;
23608;SDS011;11982;50.810;4.442;2022-11-12T02:37:51;32.05;;;16.33;;
23608;SDS011;11982;50.810;4.442;2022-11-12T02:40:16;30.90;;;16.08;;
23608;SDS011;11982;50.810;4.442;2022-11-12T02:42:42;33.78;;;16.25;;
23608;SDS011;11982;50.810;4.442;2022-11-12T02:45:07;27.83;;;15.57;;
23608;SDS011;11982;50.810;4.442;2022-11-12T02:47:34;30.92;;;15.98;;
23608;SDS011;11982;50.810;4.442;2022-11-12T02:49:59;25.58;;;14.65;;
23608;SDS011;11982;50.810;4.442;2022-11-12T02:52:25;28.38;;;14.45;;
23608;SDS011;11982;50.810;4.442;2022-11-12T02:54:50;24.88;;;13.73;;
23608;SDS011;11982;50.810;4.442;2022-11-12T02:57:16;24.33;;;14.10;;
23608;SDS011;11982;50.810;4.442;2022-11-12T02:59:42;23.40;;;14.35;;
23608;SDS011;11982;50.810;4.442;2022-11-12T03:02:07;29.35;;;15.35;;
23608;SDS011;11982;50.810;4.442;2022-11-12T03:04:33;33.40;;;16.15;;
23608;SDS011;11982;50.810;4.442;2022-11-12T03:06:58;29.17;;;15.18;;
23608;SDS011;11982;50.810;4.442;2022-11-12T03:09:24;30.92;;;15.27;;
23608;SDS011;11982;50.810;4.442;2022-11-12T03:11:49;25.98;;;13.80;;
23608;SDS011;11982;50.810;4.442;2022-11-12T03:14:15;22.20;;;13.40;;
23608;SDS011;11982;50.810;4.442;2022-11-12T03:16:40;24.25;;;15.10;;
23608;SDS011;11982;50.810;4.442;2022-11-12T03:19:06;24.88;;;14.68;;
23608;SDS011;11982;50.810;4.442;2022-11-12T03:21:32;25.58;;;13.93;;
23608;SDS011;11982;50.810;4.442;2022-11-12T03:23:57;23.95;;;14.48;;
23608;SDS011;11982;50.810;4.442;2022-11-12T03:26:23;24.15;;;13.43;;
23608;SDS011;11982;50.810;4.442;2022-11-12T03:28:49;22.90;;;15.00;;
23608;SDS011;11982;50.810;4.442;2022-11-12T03:31:15;29.63;;;15.45;;
23608;SDS011;11982;50.810;4.442;2022-11-12T03:33:41;24.05;;;13.55;;
23608;SDS011;11982;50.810;4.442;2022-11-12T03:36:06;19.80;;;12.48;;
23608;SDS011;11982;50.810;4.442;2022-11-12T03:38:32;22.05;;;12.73;;
23608;SDS011;11982;50.810;4.442;2022-11-12T03:40:58;22.10;;;12.27;;
23608;SDS011;11982;50.810;4.442;2022-11-12T03:43:23;19.73;;;12.75;;
23608;SDS011;11982;50.810;4.442;2022-11-12T03:45:49;26.40;;;13.60;;
23608;SDS011;11982;50.810;4.442;2022-11-12T03:48:14;23.25;;;13.40;;
23608;SDS011;11982;50.810;4.442;2022-11-12T03:50:40;25.73;;;13.65;;
23608;SDS011;11982;50.810;4.442;2022-11-12T03:53:05;22.83;;;13.57;;
23608;SDS011;11982;50.810;4.442;2022-11-12T03:55:32;22.20;;;13.68;;
23608;SDS011;11982;50.810;4.442;2022-11-12T03:57:57;24.20;;;13.25;;
23608;SDS011;11982;50.810;4.442;2022-11-12T04:00:24;25.45;;;12.80;;
23608;SDS011;11982;50.810;4.442;2022-11-12T04:02:50;21.60;;;13.02;;
23608;SDS011;11982;50.810;4.442;2022-11-12T04:05:16;24.17;;;13.07;;
23608;SDS011;11982;50.810;4.442;2022-11-12T04:08:03;23.73;;;12.82;;
23608;SDS011;11982;50.810;4.442;2022-11-12T04:10:50;24.60;;;12.75;;
23608;SDS011;11982;50.810;4.442;2022-11-12T04:13:15;24.20;;;13.50;;
23608;SDS011;11982;50.810;4.442;2022-11-12T04:19:08;21.80;;;12.82;;
23608;SDS011;11982;50.810;4.442;2022-11-12T04:21:58;20.85;;;12.57;;
23608;SDS011;11982;50.810;4.442;2022-11-12T04:27:12;26.42;;;13.00;;
23608;SDS011;11982;50.810;4.442;2022-11-12T04:29:38;25.42;;;14.02;;
23608;SDS011;11982;50.810;4.442;2022-11-12T04:32:22;24.73;;;13.40;;
23608;SDS011;11982;50.810;4.442;2022-11-12T04:34:49;26.75;;;13.43;;
23608;SDS011;11982;50.810;4.442;2022-11-12T04:37:15;21.58;;;13.20;;
23608;SDS011;11982;50.810;4.442;2022-11-12T04:39:41;24.90;;;13.73;;
23608;SDS011;11982;50.810;4.442;2022-11-12T04:42:07;22.48;;;12.82;;
23608;SDS011;11982;50.810;4.442;2022-11-12T04:44:53;24.65;;;13.43;;
23608;SDS011;11982;50.810;4.442;2022-11-12T04:47:21;22.52;;;11.55;;
23608;SDS011;11982;50.810;4.442;2022-11-12T04:49:47;23.67;;;13.18;;
23608;SDS011;11982;50.810;4.442;2022-11-12T04:52:13;21.73;;;11.85;;
23608;SDS011;11982;50.810;4.442;2022-11-12T04:54:39;19.63;;;12.60;;
23608;SDS011;11982;50.810;4.442;2022-11-12T04:57:04;23.02;;;12.60;;
23608;SDS011;11982;50.810;4.442;2022-11-12T04:59:30;20.50;;;12.20;;
23608;SDS011;11982;50.810;4.442;2022-11-12T05:01:55;26.35;;;12.23;;
23608;SDS011;11982;50.810;4.442;2022-11-12T05:04:21;23.40;;;11.90;;
23608;SDS011;11982;50.810;4.442;2022-11-12T05:06:47;23.27;;;12.75;;
23608;SDS011;11982;50.810;4.442;2022-11-12T05:09:15;26.73;;;14.05;;
23608;SDS011;11982;50.810;4.442;2022-11-12T05:11:44;25.83;;;12.82;;
23608;SDS011;11982;50.810;4.442;2022-11-12T05:14:10;23.33;;;12.52;;
23608;SDS011;11982;50.810;4.442;2022-11-12T05:16:36;20.52;;;12.30;;
23608;SDS011;11982;50.810;4.442;2022-11-12T05:19:01;22.08;;;12.32;;
23608;SDS011;11982;50.810;4.442;2022-11-12T05:21:27;22.42;;;12.82;;
23608;SDS011;11982;50.810;4.442;2022-11-12T05:24:11;21.63;;;12.73;;
23608;SDS011;11982;50.810;4.442;2022-11-12T05:26:37;28.33;;;14.18;;
23608;SDS011;11982;50.810;4.442;2022-11-12T05:29:02;26.25;;;14.77;;
23608;SDS011;11982;50.810;4.442;2022-11-12T05:31:28;26.88;;;14.52;;
23608;SDS011;11982;50.810;4.442;2022-11-12T05:33:54;26.67;;;14.70;;
23608;SDS011;11982;50.810;4.442;2022-11-12T05:36:19;26.45;;;14.48;;
23608;SDS011;11982;50.810;4.442;2022-11-12T05:38:45;27.65;;;14.95;;
23608;SDS011;11982;50.810;4.442;2022-11-12T05:41:11;24.10;;;13.50;;
23608;SDS011;11982;50.810;4.442;2022-11-12T05:43:36;24.83;;;13.75;;
23608;SDS011;11982;50.810;4.442;2022-11-12T05:46:02;21.27;;;13.50;;
23608;SDS011;11982;50.810;4.442;2022-11-12T05:48:28;22.25;;;13.93;;
23608;SDS011;11982;50.810;4.442;2022-11-12T05:50:54;26.45;;;14.55;;
23608;SDS011;11982;50.810;4.442;2022-11-12T05:53:19;28.98;;;15.35;;
23608;SDS011;11982;50.810;4.442;2022-11-12T05:55:45;28.67;;;15.02;;
23608;SDS011;11982;50.810;4.442;2022-11-12T05:58:10;26.98;;;13.93;;
23608;SDS011;11982;50.810;4.442;2022-11-12T06:00:36;26.40;;;15.82;;
23608;SDS011;11982;50.810;4.442;2022-11-12T06:03:05;30.75;;;16.25;;
23608;SDS011;11982;50.810;4.442;2022-11-12T06:05:34;31.48;;;16.90;;
23608;SDS011;11982;50.810;4.442;2022-11-12T06:08:00;34.72;;;16.98;;
23608;SDS011;11982;50.810;4.442;2022-11-12T06:10:28;30.30;;;15.82;;
23608;SDS011;11982;50.810;4.442;2022-11-12T06:12:54;31.33;;;15.15;;
23608;SDS011;11982;50.810;4.442;2022-11-12T06:15:19;26.83;;;14.90;;
23608;SDS011;11982;50.810;4.442;2022-11-12T06:17:45;31.10;;;15.90;;
23608;SDS011;11982;50.810;4.442;2022-11-12T06:20:11;29.73;;;15.20;;
23608;SDS011;11982;50.810;4.442;2022-11-12T06:22:37;28.58;;;15.43;;
23608;SDS011;11982;50.810;4.442;2022-11-12T06:25:03;26.23;;;14.95;;
23608;SDS011;11982;50.810;4.442;2022-11-12T06:27:29;27.42;;;14.65;;
23608;SDS011;11982;50.810;4.442;2022-11-12T06:29:55;29.13;;;16.27;;
23608;SDS011;11982;50.810;4.442;2022-11-12T06:32:21;23.83;;;14.80;;
23608;SDS011;11982;50.810;4.442;2022-11-12T06:34:47;28.00;;;15.52;;
23608;SDS011;11982;50.810;4.442;2022-11-12T06:37:14;25.95;;;14.85;;
23608;SDS011;11982;50.810;4.442;2022-11-12T06:39:40;30.23;;;15.55;;
23608;SDS011;11982;50.810;4.442;2022-11-12T06:42:05;29.73;;;15.98;;
23608;SDS011;11982;50.810;4.442;2022-11-12T06:44:31;31.67;;;16.48;;
23608;SDS011;11982;50.810;4.442;2022-11-12T06:46:56;29.45;;;14.48;;
23608;SDS011;11982;50.810;4.442;2022-11-12T06:49:22;28.83;;;15.85;;
23608;SDS011;11982;50.810;4.442;2022-11-12T06:51:49;30.08;;;15.85;;
23608;SDS011;11982;50.810;4.442;2022-11-12T06:54:15;28.55;;;15.23;;
23608;SDS011;11982;50.810;4.442;2022-11-12T06:56:40;23.30;;;14.05;;
23608;SDS011;11982;50.810;4.442;2022-11-12T06:59:06;22.55;;;13.65;;
23608;SDS011;11982;50.810;4.442;2022-11-12T07:01:32;26.60;;;13.85;;
23608;SDS011;11982;50.810;4.442;2022-11-12T07:03:57;24.38;;;15.13;;
23608;SDS011;11982;50.810;4.442;2022-11-12T07:06:23;26.33;;;14.68;;
23608;SDS011;11982;50.810;4.442;2022-11-12T07:08:49;26.38;;;14.70;;
23608;SDS011;11982;50.810;4.442;2022-11-12T07:11:15;30.98;;;15.40;;
23608;SDS011;11982;50.810;4.442;2022-11-12T07:13:43;29.10;;;14.65;;
23608;SDS011;11982;50.810;4.442;2022-11-12T07:16:09;28.23;;;14.52;;
23608;SDS011;11982;50.810;4.442;2022-11-12T07:18:36;36.70;;;16.13;;
23608;SDS011;11982;50.810;4.442;2022-11-12T07:21:03;40.88;;;15.55;;
23608;SDS011;11982;50.810;4.442;2022-11-12T07:23:30;43.20;;;17.73;;
23608;SDS011;11982;50.810;4.442;2022-11-12T07:25:58;56.63;;;20.52;;
23608;SDS011;11982;50.810;4.442;2022-11-12T07:28:30;46.90;;;19.73;;
23608;SDS011;11982;50.810;4.442;2022-11-12T07:30:57;34.78;;;18.17;;
23608;SDS011;11982;50.810;4.442;2022-11-12T07:33:24;34.38;;;17.05;;
23608;SDS011;11982;50.810;4.442;2022-11-12T07:35:59;32.30;;;16.75;;
23608;SDS011;11982;50.810;4.442;2022-11-12T07:38:26;31.63;;;16.15;;
23608;SDS011;11982;50.810;4.442;2022-11-12T07:41:03;31.20;;;16.27;;
23608;SDS011;11982;50.810;4.442;2022-11-12T07:43:30;34.78;;;16.25;;
23608;SDS011;11982;50.810;4.442;2022-11-12T07:46:01;29.67;;;15.88;;
23608;SDS011;11982;50.810;4.442;2022-11-12T07:48:31;28.90;;;16.00;;
23608;SDS011;11982;50.810;4.442;2022-11-12T07:51:08;26.80;;;14.98;;
23608;SDS011;11982;50.810;4.442;2022-11-12T07:53:37;26.73;;;15.27;;
23608;SDS011;11982;50.810;4.442;2022-11-12T07:56:04;28.25;;;15.95;;
23608;SDS011;11982;50.810;4.442;2022-11-12T07:58:30;28.08;;;15.38;;
23608;SDS011;11982;50.810;4.442;2022-11-12T08:01:05;29.67;;;14.82;;
23608;SDS011;11982;50.810;4.442;2022-11-12T08:05:58;32.58;;;15.50;;
23608;SDS011;11982;50.810;4.442;2022-11-12T08:08:25;29.15;;;16.42;;
23608;SDS011;11982;50.810;4.442;2022-11-12T08:10:54;36.55;;;16.67;;
23608;SDS011;11982;50.810;4.442;2022-11-12T08:13:20;30.25;;;15.88;;
23608;SDS011;11982;50.810;4.442;2022-11-12T08:15:46;28.92;;;16.60;;
23608;SDS011;11982;50.810;4.442;2022-11-12T08:18:12;27.15;;;16.20;;
23608;SDS011;11982;50.810;4.442;2022-11-12T08:20:38;28.70;;;17.58;;
23608;SDS011;11982;50.810;4.442;2022-11-12T08:23:04;35.22;;;18.35;;
23608;SDS011;11982;50.810;4.442;2022-11-12T08:25:30;36.97;;;19.48;;
23608;SDS011;11982;50.810;4.442;2022-11-12T08:27:56;35.05;;;17.77;;
23608;SDS011;11982;50.810;4.442;2022-11-12T08:30:24;34.25;;;20.35;;
23608;SDS011;11982;50.810;4.442;2022-11-12T08:33:00;35.13;;;18.00;;
23608;SDS011;11982;50.810;4.442;2022-11-12T08:35:27;35.45;;;18.42;;
23608;SDS011;11982;50.810;4.442;2022-11-12T08:37:57;31.38;;;17.35;;
23608;SDS011;11982;50.810;4.442;2022-11-12T08:40:28;32.97;;;17.73;;
23608;SDS011;11982;50.810;4.442;2022-11-12T08:42:59;35.10;;;17.17;;
23608;SDS011;11982;50.810;4.442;2022-11-12T08:45:26;32.42;;;17.45;;
23608;SDS011;11982;50.810;4.442;2022-11-12T08:47:52;29.50;;;16.90;;
23608;SDS011;11982;50.810;4.442;2022-11-12T08:50:23;26.08;;;15.88;;
23608;SDS011;11982;50.810;4.442;2022-11-12T08:52:49;32.30;;;17.33;;
23608;SDS011;11982;50.810;4.442;2022-11-12T08:55:14;30.13;;;17.17;;
23608;SDS011;11982;50.810;4.442;2022-11-12T08:57:40;31.55;;;16.80;;
23608;SDS011;11982;50.810;4.442;2022-11-12T09:00:08;35.30;;;17.42;;
23608;SDS011;11982;50.810;4.442;2022-11-12T09:02:35;32.97;;;16.90;;
23608;SDS011;11982;50.810;4.442;2022-11-12T09:05:01;25.70;;;15.88;;
23608;SDS011;11982;50.810;4.442;2022-11-12T09:07:26;26.58;;;16.60;;
23608;SDS011;11982;50.810;4.442;2022-11-12T09:09:52;35.45;;;16.83;;
23608;SDS011;11982;50.810;4.442;2022-11-12T09:12:17;24.40;;;15.50;;
23608;SDS011;11982;50.810;4.442;2022-11-12T09:14:43;27.27;;;16.55;;
23608;SDS011;11982;50.810;4.442;2022-11-12T09:17:10;31.00;;;16.88;;
23608;SDS011;11982;50.810;4.442;2022-11-12T09:19:36;26.67;;;15.20;;
23608;SDS011;11982;50.810;4.442;2022-11-12T09:22:01;33.65;;;14.00;;
23608;SDS011;11982;50.810;4.442;2022-11-12T09:24:27;28.73;;;14.38;;
23608;SDS011;11982;50.810;4.442;2022-11-12T09:26:53;28.27;;;14.07;;
23608;SDS011;11982;50.810;4.442;2022-11-12T09:29:18;22.30;;;11.52;;
23608;SDS011;11982;50.810;4.442;2022-11-12T09:31:44;17.65;;;9.52;;
23608;SDS011;11982;50.810;4.442;2022-11-12T09:34:10;24.25;;;10.77;;
23608;SDS011;11982;50.810;4.442;2022-11-12T09:36:36;14.85;;;9.80;;
23608;SDS011;11982;50.810;4.442;2022-11-12T09:39:01;16.92;;;9.13;;
23608;SDS011;11982;50.810;4.442;2022-11-12T09:41:37;9.85;;;7.15;;
23608;SDS011;11982;50.810;4.442;2022-11-12T09:44:17;10.10;;;5.85;;
23608;SDS011;11982;50.810;4.442;2022-11-12T09:46:54;12.35;;;6.82;;
23608;SDS011;11982;50.810;4.442;2022-11-12T09:49:28;16.30;;;6.28;;
23608;SDS011;11982;50.810;4.442;2022-11-12T09:52:14;15.30;;;7.20;;
23608;SDS011;11982;50.810;4.442;2022-11-12T09:54:45;32.00;;;8.00;;
23608;SDS011;11982;50.810;4.442;2022-11-12T09:57:16;20.50;;;6.53;;
23608;SDS011;11982;50.810;4.442;2022-11-12T09:59:41;12.25;;;4.97;;
23608;SDS011;11982;50.810;4.442;2022-11-12T10:05:17;6.80;;;5.20;;
23608;SDS011;11982;50.810;4.442;2022-11-12T10:24:08;8.80;;;5.03;;
23608;SDS011;11982;50.810;4.442;2022-11-12T10:26:35;9.27;;;5.40;;
23608;SDS011;11982;50.810;4.442;2022-11-12T10:29:08;8.20;;;4.85;;
23608;SDS011;11982;50.810;4.442;2022-11-12T10:31:36;11.15;;;4.85;;
23608;SDS011;11982;50.810;4.442;2022-11-12T10:36:45;7.68;;;4.65;;
23608;SDS011;11982;50.810;4.442;2022-11-12T10:39:30;6.68;;;4.97;;
23608;SDS011;11982;50.810;4.442;2022-11-12T10:42:11;9.95;;;5.07;;
23608;SDS011;11982;50.810;4.442;2022-11-12T10:44:38;9.00;;;5.50;;
23608;SDS011;11982;50.810;4.442;2022-11-12T10:52:30;9.05;;;4.97;;
23608;SDS011;11982;50.810;4.442;2022-11-12T11:00:33;7.30;;;4.90;;
23608;SDS011;11982;50.810;4.442;2022-11-12T11:03:00;7.53;;;4.68;;
23608;SDS011;11982;50.810;4.442;2022-11-12T11:07:55;14.73;;;7.78;;
23608;SDS011;11982;50.810;4.442;2022-11-12T11:10:23;10.60;;;5.63;;
23608;SDS011;11982;50.810;4.442;2022-11-12T11:15:41;12.13;;;5.95;;
23608;SDS011;11982;50.810;4.442;2022-11-12T11:18:26;8.73;;;5.90;;
23608;SDS011;11982;50.810;4.442;2022-11-12T11:21:04;9.60;;;5.60;;
23608;SDS011;11982;50.810;4.442;2022-11-12T11:27:00;7.47;;;4.97;;
23608;SDS011;11982;50.810;4.442;2022-11-12T11:29:07;8.38;;;5.05;;
23608;SDS011;11982;50.810;4.442;2022-11-12T11:31:52;9.65;;;5.72;;
23608;SDS011;11982;50.810;4.442;2022-11-12T11:34:37;9.65;;;5.07;;
23608;SDS011;11982;50.810;4.442;2022-11-12T11:42:39;11.38;;;5.75;;
23608;SDS011;11982;50.810;4.442;2022-11-12T11:45:14;9.95;;;4.65;;
23608;SDS011;11982;50.810;4.442;2022-11-12T11:47:52;7.82;;;5.20;;
23608;SDS011;11982;50.810;4.442;2022-11-12T11:50:24;9.35;;;4.85;;
23608;SDS011;11982;50.810;4.442;2022-11-12T11:53:15;8.05;;;4.38;;
23608;SDS011;11982;50.810;4.442;2022-11-12T11:56:14;10.32;;;5.00;;
23608;SDS011;11982;50.810;4.442;2022-11-12T11:59:21;7.47;;;4.43;;
23608;SDS011;11982;50.810;4.442;2022-11-12T12:04:49;8.70;;;5.22;;
23608;SDS011;11982;50.810;4.442;2022-11-12T12:18:44;10.27;;;5.03;;
23608;SDS011;11982;50.810;4.442;2022-11-12T12:21:34;10.45;;;4.70;;
23608;SDS011;11982;50.810;4.442;2022-11-12T12:24:14;9.10;;;4.70;;
23608;SDS011;11982;50.810;4.442;2022-11-12T12:26:49;12.38;;;4.63;;
23608;SDS011;11982;50.810;4.442;2022-11-12T12:29:23;8.90;;;4.30;;
23608;SDS011;11982;50.810;4.442;2022-11-12T12:32:21;8.73;;;4.70;;
23608;SDS011;11982;50.810;4.442;2022-11-12T12:34:57;15.93;;;6.90;;
23608;SDS011;11982;50.810;4.442;2022-11-12T12:41:25;5.83;;;4.20;;
23608;SDS011;11982;50.810;4.442;2022-11-12T12:43:56;7.35;;;4.25;;
23608;SDS011;11982;50.810;4.442;2022-11-12T12:46:27;9.20;;;4.65;;
23608;SDS011;11982;50.810;4.442;2022-11-12T12:48:56;9.68;;;4.80;;
23608;SDS011;11982;50.810;4.442;2022-11-12T12:51:23;7.78;;;4.22;;
23608;SDS011;11982;50.810;4.442;2022-11-12T12:53:53;9.30;;;4.32;;
23608;SDS011;11982;50.810;4.442;2022-11-12T12:58:47;8.25;;;4.10;;
23608;SDS011;11982;50.810;4.442;2022-11-12T13:19:36;9.70;;;3.85;;
23608;SDS011;11982;50.810;4.442;2022-11-12T13:24:59;9.55;;;3.97;;
23608;SDS011;11982;50.810;4.442;2022-11-12T13:45:36;6.00;;;3.75;;
23608;SDS011;11982;50.810;4.442;2022-11-12T13:48:35;7.30;;;3.83;;
23608;SDS011;11982;50.810;4.442;2022-11-12T13:51:09;6.18;;;3.08;;
23608;SDS011;11982;50.810;4.442;2022-11-12T13:53:40;5.60;;;3.63;;
23608;SDS011;11982;50.810;4.442;2022-11-12T13:56:07;6.40;;;4.97;;
23608;SDS011;11982;50.810;4.442;2022-11-12T13:58:37;7.22;;;4.15;;
23608;SDS011;11982;50.810;4.442;2022-11-12T14:01:09;12.13;;;6.47;;
23608;SDS011;11982;50.810;4.442;2022-11-12T14:03:42;5.43;;;4.55;;
23608;SDS011;11982;50.810;4.442;2022-11-12T14:06:15;8.77;;;3.80;;
23608;SDS011;11982;50.810;4.442;2022-11-12T14:11:56;6.93;;;3.65;;
23608;SDS011;11982;50.810;4.442;2022-11-12T14:22:23;7.32;;;4.55;;
23608;SDS011;11982;50.810;4.442;2022-11-12T14:24:53;6.15;;;3.78;;
23608;SDS011;11982;50.810;4.442;2022-11-12T14:32:36;16.92;;;5.47;;
23608;SDS011;11982;50.810;4.442;2022-11-12T14:40:47;9.10;;;4.90;;
23608;SDS011;11982;50.810;4.442;2022-11-12T14:43:23;7.93;;;4.25;;
23608;SDS011;11982;50.810;4.442;2022-11-12T14:45:53;8.80;;;3.80;;
23608;SDS011;11982;50.810;4.442;2022-11-12T14:48:21;12.88;;;5.22;;
23608;SDS011;11982;50.810;4.442;2022-11-12T14:50:48;7.20;;;4.20;;
23608;SDS011;11982;50.810;4.442;2022-11-12T14:55:54;7.38;;;4.53;;
23608;SDS011;11982;50.810;4.442;2022-11-12T14:58:21;6.20;;;4.30;;
23608;SDS011;11982;50.810;4.442;2022-11-12T15:00:48;7.43;;;3.80;;
23608;SDS011;11982;50.810;4.442;2022-11-12T15:03:19;11.40;;;4.82;;
23608;SDS011;11982;50.810;4.442;2022-11-12T15:06:49;6.38;;;4.22;;
23608;SDS011;11982;50.810;4.442;2022-11-12T15:08:54;7.65;;;4.60;;
23608;SDS011;11982;50.810;4.442;2022-11-12T15:11:29;8.45;;;4.60;;
23608;SDS011;11982;50.810;4.442;2022-11-12T15:14:21;7.78;;;4.53;;
23608;SDS011;11982;50.810;4.442;2022-11-12T15:16:48;9.13;;;5.07;;
23608;SDS011;11982;50.810;4.442;2022-11-12T15:19:24;10.77;;;4.63;;
23608;SDS011;11982;50.810;4.442;2022-11-12T15:21:52;10.43;;;4.50;;
23608;SDS011;11982;50.810;4.442;2022-11-12T15:24:32;6.70;;;3.55;;
23608;SDS011;11982;50.810;4.442;2022-11-12T15:27:00;8.88;;;4.80;;
23608;SDS011;11982;50.810;4.442;2022-11-12T15:29:45;8.65;;;4.50;;
23608;SDS011;11982;50.810;4.442;2022-11-12T15:39:31;7.47;;;3.75;;
23608;SDS011;11982;50.810;4.442;2022-11-12T15:42:05;9.35;;;4.45;;
23608;SDS011;11982;50.810;4.442;2022-11-12T15:44:41;9.05;;;4.55;;
23608;SDS011;11982;50.810;4.442;2022-11-12T15:47:08;8.20;;;4.72;;
23608;SDS011;11982;50.810;4.442;2022-11-12T15:49:46;7.13;;;4.65;;
23608;SDS011;11982;50.810;4.442;2022-11-12T15:52:34;6.47;;;4.43;;
23608;SDS011;11982;50.810;4.442;2022-11-12T15:55:00;9.82;;;4.93;;
23608;SDS011;11982;50.810;4.442;2022-11-12T15:57:27;6.07;;;4.35;;
23608;SDS011;11982;50.810;4.442;2022-11-12T15:59:59;6.28;;;4.50;;
23608;SDS011;11982;50.810;4.442;2022-11-12T16:02:25;12.00;;;5.03;;
23608;SDS011;11982;50.810;4.442;2022-11-12T16:04:53;10.45;;;5.30;;
23608;SDS011;11982;50.810;4.442;2022-11-12T16:07:19;10.98;;;5.47;;
23608;SDS011;11982;50.810;4.442;2022-11-12T16:09:45;10.38;;;5.57;;
23608;SDS011;11982;50.810;4.442;2022-11-12T16:12:10;7.10;;;5.07;;
23608;SDS011;11982;50.810;4.442;2022-11-12T16:14:37;7.45;;;5.18;;
23608;SDS011;11982;50.810;4.442;2022-11-12T16:17:04;12.48;;;5.50;;
23608;SDS011;11982;50.810;4.442;2022-11-12T16:19:34;7.82;;;5.13;;
23608;SDS011;11982;50.810;4.442;2022-11-12T16:22:00;8.25;;;4.93;;
23608;SDS011;11982;50.810;4.442;2022-11-12T16:24:25;8.63;;;5.28;;
23608;SDS011;11982;50.810;4.442;2022-11-12T16:26:51;9.77;;;5.70;;
23608;SDS011;11982;50.810;4.442;2022-11-12T16:29:17;12.55;;;5.80;;
23608;SDS011;11982;50.810;4.442;2022-11-12T16:31:43;6.82;;;4.93;;
23608;SDS011;11982;50.810;4.442;2022-11-12T16:34:09;10.13;;;5.55;;
23608;SDS011;11982;50.810;4.442;2022-11-12T16:36:35;9.68;;;5.32;;
23608;SDS011;11982;50.810;4.442;2022-11-12T16:39:02;9.23;;;5.50;;
23608;SDS011;11982;50.810;4.442;2022-11-12T16:41:28;7.72;;;5.43;;
23608;SDS011;11982;50.810;4.442;2022-11-12T16:43:53;10.45;;;6.32;;
23608;SDS011;11982;50.810;4.442;2022-11-12T16:49:04;15.00;;;6.95;;
23608;SDS011;11982;50.810;4.442;2022-11-12T16:51:30;11.90;;;6.47;;
23608;SDS011;11982;50.810;4.442;2022-11-12T16:53:56;13.60;;;6.97;;
23608;SDS011;11982;50.810;4.442;2022-11-12T16:56:21;9.68;;;7.13;;
23608;SDS011;11982;50.810;4.442;2022-11-12T16:58:48;11.95;;;7.72;;
23608;SDS011;11982;50.810;4.442;2022-11-12T17:01:19;17.25;;;7.28;;
23608;SDS011;11982;50.810;4.442;2022-11-12T17:03:51;17.08;;;10.00;;
23608;SDS011;11982;50.810;4.442;2022-11-12T17:06:17;60.28;;;43.83;;
23608;SDS011;11982;50.810;4.442;2022-11-12T17:08:43;145.25;;;108.75;;
23608;SDS011;11982;50.810;4.442;2022-11-12T17:11:15;94.38;;;69.78;;